Airport View

Enter AWOS ICAO identifier for current METAR.

ex. KFNL

KW29 080615Z AUTO 10003KT 10SM OVC015 22/ A3010 RMK AO2

8 Aug 2020 06:16

Frequency: 120.575

Phone: 410-643-8795

Other Area AWOS: KNAK - KESN - KBWI - KFME

TAF KBWI 080530Z 0806/0912 VRB03KT P6SM SCT100 BKN140 FM080900 VRB03KT P6SM BKN015 FM081100 02004KT 5SM BR BKN020 FM081200 03004KT P6SM BKN110 FM082000 08004KT P6SM SCT150